createdAt,value
2018-08-13T00:01:28.774Z,2.40
2018-08-13T00:03:57.188Z,2.17
2018-08-13T00:06:25.605Z,2.33
2018-08-13T00:08:54.077Z,2.65
2018-08-13T00:11:22.558Z,2.08
2018-08-13T00:13:51.012Z,1.87
2018-08-13T00:16:19.464Z,2.37
2018-08-13T00:18:47.941Z,2.15
2018-08-13T00:21:16.396Z,2.40
2018-08-13T00:23:44.865Z,2.22
2018-08-13T00:26:13.293Z,2.12
2018-08-13T00:28:41.764Z,2.40
2018-08-13T00:31:10.269Z,2.05
2018-08-13T00:33:38.669Z,2.40
2018-08-13T00:36:07.142Z,2.70
2018-08-13T00:38:35.605Z,2.05
2018-08-13T00:41:04.076Z,1.95
2018-08-13T00:43:32.559Z,2.27
2018-08-13T00:46:01.008Z,2.15
2018-08-13T00:48:29.477Z,2.40
2018-08-13T00:50:57.917Z,2.30
2018-08-13T00:53:26.353Z,2.27
2018-08-13T00:55:54.812Z,1.85
2018-08-13T00:58:23.266Z,2.00
2018-08-13T01:00:51.728Z,2.20
2018-08-13T01:03:20.615Z,2.65
2018-08-13T01:05:49.082Z,1.90
2018-08-13T01:08:17.497Z,2.30
2018-08-13T01:10:45.989Z,2.40
2018-08-13T01:13:14.417Z,1.87
2018-08-13T01:15:42.892Z,1.92
2018-08-13T01:18:11.345Z,2.33
2018-08-13T01:20:39.805Z,2.10
2018-08-13T01:23:08.264Z,2.10
2018-08-13T01:25:36.721Z,2.33
2018-08-13T01:28:05.325Z,1.50
2018-08-13T01:30:33.860Z,2.65
2018-08-13T01:33:02.289Z,2.10
2018-08-13T01:35:30.912Z,2.17
2018-08-13T01:37:59.493Z,2.05
2018-08-13T01:40:27.961Z,1.90
2018-08-13T01:42:56.374Z,2.33
2018-08-13T01:45:24.844Z,2.80
2018-08-13T01:47:53.286Z,2.12
2018-08-13T01:50:21.780Z,2.02
2018-08-13T01:52:50.202Z,2.20
2018-08-13T01:55:18.648Z,2.52
2018-08-13T01:57:47.045Z,2.27
2018-08-13T02:00:16.566Z,2.08
2018-08-13T02:02:45.059Z,2.20
2018-08-13T02:05:13.589Z,1.87
2018-08-13T02:07:42.267Z,2.05
2018-08-13T02:10:11.911Z,1.98
2018-08-13T02:12:40.741Z,2.20
2018-08-13T02:15:09.473Z,1.82
2018-08-13T02:17:37.994Z,2.27
2018-08-13T02:20:07.918Z,2.20
2018-08-13T02:22:37.562Z,2.37
2018-08-13T02:25:06.817Z,1.90
2018-08-13T02:27:35.295Z,1.85
2018-08-13T02:30:05.857Z,1.92
2018-08-13T02:32:34.337Z,1.77
2018-08-13T02:35:02.797Z,1.82
2018-08-13T02:37:31.257Z,1.87
2018-08-13T02:39:59.793Z,1.92
2018-08-13T02:42:27.924Z,1.87
2018-08-13T02:44:56.366Z,1.90
2018-08-13T02:47:24.841Z,1.80
2018-08-13T02:49:53.292Z,1.77
2018-08-13T02:52:21.763Z,1.60
2018-08-13T02:54:50.233Z,2.17
2018-08-13T02:57:18.685Z,1.90
2018-08-13T02:59:47.094Z,1.62
2018-08-13T03:02:15.587Z,2.05
2018-08-13T03:04:44.107Z,1.62
2018-08-13T03:07:12.528Z,1.95
2018-08-13T03:09:40.659Z,2.05
2018-08-13T03:12:09.137Z,2.12
2018-08-13T03:14:37.591Z,2.20
2018-08-13T03:17:06.048Z,2.08
2018-08-13T03:19:34.483Z,1.77
2018-08-13T03:22:02.964Z,2.22
2018-08-13T03:24:31.446Z,1.62
2018-08-13T03:26:59.926Z,1.92
2018-08-13T03:29:28.406Z,2.05
2018-08-13T03:31:56.869Z,2.00
2018-08-13T03:34:25.308Z,2.12
2018-08-13T03:36:53.769Z,2.05
2018-08-13T03:39:22.230Z,2.00
2018-08-13T03:41:50.682Z,2.12
2018-08-13T03:44:19.115Z,1.90
2018-08-13T03:46:47.576Z,2.30
2018-08-13T03:49:16.021Z,2.30
2018-08-13T03:51:44.474Z,2.10
2018-08-13T03:54:12.889Z,1.75
2018-08-13T03:56:41.328Z,2.87
2018-08-13T03:59:09.759Z,1.90
2018-08-13T04:01:38.227Z,2.00
2018-08-13T04:04:06.753Z,2.10
2018-08-13T04:06:35.245Z,1.90
2018-08-13T04:09:04.218Z,1.92
2018-08-13T04:11:32.665Z,1.87
2018-08-13T04:14:01.144Z,2.30
2018-08-13T04:16:29.617Z,2.05
2018-08-13T04:18:58.085Z,2.02
2018-08-13T04:21:26.468Z,1.95
2018-08-13T04:23:55.021Z,2.25
2018-08-13T04:26:23.461Z,1.85
2018-08-13T04:28:51.964Z,1.98
2018-08-13T04:31:20.442Z,1.80
2018-08-13T04:33:48.917Z,2.35
2018-08-13T04:36:17.301Z,2.37
2018-08-13T04:38:45.840Z,2.12
2018-08-13T04:41:14.213Z,2.47
2018-08-13T04:43:42.708Z,2.00
2018-08-13T04:46:11.132Z,2.37
2018-08-13T04:48:39.622Z,2.40
2018-08-13T04:51:08.296Z,1.90
2018-08-13T04:53:36.753Z,2.22
2018-08-13T04:56:05.192Z,1.80
2018-08-13T04:58:33.669Z,2.10
2018-08-13T05:01:02.077Z,2.30
2018-08-13T05:03:30.513Z,2.22
2018-08-13T05:05:58.932Z,1.98
2018-08-13T05:08:27.348Z,2.05
2018-08-13T05:10:55.761Z,2.00
2018-08-13T05:13:24.186Z,2.10
2018-08-13T05:15:52.660Z,2.05
2018-08-13T05:18:21.093Z,2.05
2018-08-13T05:20:49.522Z,2.33
2018-08-13T05:23:17.954Z,2.15
2018-08-13T05:25:46.427Z,2.47
2018-08-13T05:28:14.849Z,2.05
2018-08-13T05:30:43.319Z,2.20
2018-08-13T05:33:11.726Z,1.95
2018-08-13T05:35:40.196Z,2.20
2018-08-13T05:38:08.620Z,2.30
2018-08-13T05:40:37.067Z,2.35
2018-08-13T05:43:05.837Z,2.27
2018-08-13T05:45:34.326Z,2.33
2018-08-13T05:48:02.792Z,1.92
2018-08-13T05:50:31.264Z,2.05
2018-08-13T05:52:59.731Z,1.98
2018-08-13T05:55:28.213Z,1.70
2018-08-13T05:57:56.637Z,2.20
2018-08-13T06:00:25.089Z,2.40
2018-08-13T06:02:53.532Z,1.77
2018-08-13T06:05:21.989Z,2.00
2018-08-13T06:07:50.392Z,2.00
2018-08-13T06:10:18.850Z,1.92
2018-08-13T06:12:47.277Z,1.80
2018-08-13T06:15:15.803Z,1.57
2018-08-13T06:17:44.208Z,1.40
2018-08-13T06:20:13.176Z,1.82
2018-08-13T06:22:42.848Z,2.52
2018-08-13T06:25:12.699Z,2.30
2018-08-13T06:27:41.165Z,2.70
2018-08-13T06:30:12.074Z,2.58
2018-08-13T06:32:41.174Z,2.00
2018-08-13T06:35:10.097Z,1.50
2018-08-13T06:37:38.732Z,1.90
2018-08-13T06:40:07.746Z,2.10
2018-08-13T06:42:36.236Z,1.70
2018-08-13T06:45:05.859Z,1.85
2018-08-13T06:47:34.344Z,2.27
2018-08-13T06:50:02.857Z,2.40
2018-08-13T06:52:31.282Z,2.45
2018-08-13T06:54:59.726Z,2.08
2018-08-13T06:57:28.142Z,2.35
2018-08-13T06:59:56.649Z,1.80
2018-08-13T07:02:25.054Z,1.77
2018-08-13T07:04:53.523Z,1.70
2018-08-13T07:07:21.956Z,1.30
2018-08-13T07:09:50.449Z,1.40
2018-08-13T07:12:18.584Z,1.80
2018-08-13T07:14:47.025Z,2.40
2018-08-13T07:17:15.433Z,1.85
2018-08-13T07:19:43.880Z,2.25
2018-08-13T07:22:12.400Z,1.50
2018-08-13T07:24:40.775Z,1.90
2018-08-13T07:27:09.234Z,2.90
2018-08-13T07:29:37.689Z,2.08
2018-08-13T07:32:06.137Z,2.00
2018-08-13T07:34:34.570Z,2.08
2018-08-13T07:37:03.387Z,1.87
2018-08-13T07:39:31.923Z,2.02
2018-08-13T07:42:00.312Z,2.00
2018-08-13T07:44:28.741Z,3.05
2018-08-13T07:46:57.200Z,2.90
2018-08-13T07:49:25.637Z,1.87
2018-08-13T07:51:54.125Z,1.70
2018-08-13T07:54:22.553Z,1.65
2018-08-13T07:56:51.205Z,2.30
2018-08-13T07:59:19.645Z,1.52
2018-08-13T08:01:48.125Z,1.27
2018-08-13T08:04:16.633Z,1.80
2018-08-13T08:06:45.089Z,1.70
2018-08-13T08:09:13.766Z,1.70
2018-08-13T08:11:42.473Z,1.30
2018-08-13T08:14:10.948Z,1.22
2018-08-13T08:16:39.442Z,1.65
2018-08-13T08:19:07.904Z,1.50
2018-08-13T08:21:36.369Z,1.77
2018-08-13T08:24:04.865Z,1.62
2018-08-13T08:26:33.371Z,1.50
2018-08-13T08:29:01.852Z,1.70
2018-08-13T08:31:30.310Z,1.60
2018-08-13T08:33:58.425Z,1.70
2018-08-13T08:36:26.920Z,1.40
2018-08-13T08:38:55.366Z,1.50
2018-08-13T08:41:23.848Z,1.17
2018-08-13T08:43:52.280Z,1.45
2018-08-13T08:46:20.733Z,1.42
2018-08-13T08:48:49.187Z,1.22
2018-08-13T08:51:17.700Z,1.50
2018-08-13T08:53:46.186Z,1.45
2018-08-13T08:56:14.649Z,1.30
2018-08-13T08:58:43.104Z,1.52
2018-08-13T09:01:11.542Z,1.70
2018-08-13T09:03:39.977Z,1.47
2018-08-13T09:06:08.417Z,1.40
2018-08-13T09:08:36.904Z,1.17
2018-08-13T09:11:05.592Z,1.30
2018-08-13T09:13:34.070Z,1.50
2018-08-13T09:16:02.652Z,1.47
2018-08-13T09:18:42.450Z,1.30
2018-08-13T09:21:22.143Z,1.62
2018-08-13T09:24:01.917Z,1.40
2018-08-13T09:26:41.569Z,1.20
2018-08-13T09:29:21.166Z,0.98
2018-08-13T09:32:33.917Z,1.07
2018-08-13T09:35:13.532Z,1.20
2018-08-13T09:37:42.040Z,1.20
2018-08-13T09:40:10.783Z,1.15
2018-08-13T09:42:39.260Z,1.40
2018-08-13T09:45:08.360Z,0.90
2018-08-13T09:47:37.693Z,1.00
2018-08-13T09:50:09.730Z,1.07
2018-08-13T09:52:38.209Z,1.17
2018-08-13T09:55:07.073Z,0.90
2018-08-13T09:57:35.527Z,1.10
2018-08-13T10:00:05.308Z,1.02
2018-08-13T10:02:33.754Z,0.90
2018-08-13T10:05:02.239Z,0.90
2018-08-13T10:07:30.676Z,1.10
2018-08-13T10:09:59.124Z,1.05
2018-08-13T10:12:27.635Z,0.98
2018-08-13T10:14:56.129Z,1.27
2018-08-13T10:17:24.678Z,1.10
2018-08-13T10:19:53.117Z,1.10
2018-08-13T10:22:21.558Z,1.05
2018-08-13T10:24:50.039Z,1.10
2018-08-13T10:27:18.453Z,1.00
2018-08-13T10:29:47.097Z,1.00
2018-08-13T10:32:15.474Z,1.12
2018-08-13T10:34:43.934Z,1.22
2018-08-13T10:37:12.322Z,1.00
2018-08-13T10:39:40.785Z,1.32
2018-08-13T10:42:09.248Z,1.07
2018-08-13T10:44:37.748Z,1.17
2018-08-13T10:47:06.151Z,1.12
2018-08-13T10:49:34.619Z,1.30
2018-08-13T10:52:03.041Z,1.32
2018-08-13T10:54:31.525Z,1.30
2018-08-13T10:56:59.994Z,1.30
2018-08-13T10:59:28.421Z,1.32
2018-08-13T11:01:56.844Z,1.20
2018-08-13T11:04:25.301Z,1.52
2018-08-13T11:06:53.698Z,1.87
2018-08-13T11:09:22.132Z,1.62
2018-08-13T11:11:50.547Z,1.30
2018-08-13T11:14:19.021Z,1.60
2018-08-13T11:16:47.438Z,1.60
2018-08-13T11:19:15.883Z,1.27
2018-08-13T11:21:44.376Z,1.25
2018-08-13T11:24:12.861Z,1.30
2018-08-13T11:26:41.289Z,1.30
2018-08-13T11:29:09.730Z,1.30
2018-08-13T11:31:38.164Z,1.30
2018-08-13T11:34:06.674Z,1.70
2018-08-13T11:36:35.157Z,1.30
2018-08-13T11:39:04.157Z,1.17
2018-08-13T11:41:32.584Z,1.40
2018-08-13T11:44:01.010Z,1.57
2018-08-13T11:46:29.489Z,1.22
2018-08-13T11:48:57.964Z,1.10
2018-08-13T11:51:26.417Z,1.10
2018-08-13T11:53:54.934Z,1.25
2018-08-13T11:56:23.432Z,1.50
2018-08-13T11:58:51.854Z,1.00
2018-08-13T12:01:20.329Z,1.30
2018-08-13T12:03:48.776Z,1.30
2018-08-13T12:06:17.230Z,1.17
2018-08-13T12:08:45.768Z,1.25
2018-08-13T12:11:14.252Z,1.20
2018-08-13T12:13:42.661Z,1.35
2018-08-13T12:16:11.132Z,1.20
2018-08-13T12:18:39.622Z,1.30
2018-08-13T12:21:08.125Z,1.22
2018-08-13T12:23:36.708Z,1.10
2018-08-13T12:26:05.209Z,1.57
2018-08-13T12:28:33.640Z,1.40
2018-08-13T12:31:02.069Z,1.80
2018-08-13T12:33:30.866Z,1.50
2018-08-13T12:35:59.305Z,1.30
2018-08-13T12:38:27.817Z,1.40
2018-08-13T12:40:56.293Z,1.72
2018-08-13T12:43:24.701Z,1.67
2018-08-13T12:45:53.177Z,1.65
2018-08-13T12:48:21.616Z,1.35
2018-08-13T12:50:50.077Z,1.62
2018-08-13T12:53:18.557Z,1.62
2018-08-13T12:55:47.012Z,1.45
2018-08-13T12:58:15.114Z,1.90
2018-08-13T13:00:43.589Z,1.37
2018-08-13T13:03:12.006Z,1.65
2018-08-13T13:05:40.509Z,1.60
2018-08-13T13:08:09.142Z,1.50
2018-08-13T13:10:37.590Z,1.50
2018-08-13T13:13:06.051Z,1.70
2018-08-13T13:15:35.570Z,1.60
2018-08-13T13:18:04.000Z,1.75
2018-08-13T13:20:32.505Z,1.55
2018-08-13T13:23:00.952Z,1.55
2018-08-13T13:25:29.152Z,1.20
2018-08-13T13:27:57.597Z,1.37
2018-08-13T13:30:26.058Z,1.57
2018-08-13T13:32:54.500Z,1.85
2018-08-13T13:35:22.933Z,2.15
2018-08-13T13:37:51.392Z,1.87
2018-08-13T13:40:19.852Z,1.72
2018-08-13T13:42:48.337Z,1.57
2018-08-13T13:45:17.558Z,1.67
2018-08-13T13:47:46.241Z,2.02
2018-08-13T13:50:17.098Z,1.87
2018-08-13T13:52:45.898Z,1.70
2018-08-13T13:55:14.757Z,1.70
2018-08-13T13:57:43.272Z,2.05
2018-08-13T14:00:15.389Z,1.70
2018-08-13T14:02:44.328Z,2.00
2018-08-13T14:05:12.972Z,1.60
2018-08-13T14:07:41.802Z,1.90
2018-08-13T14:10:14.256Z,1.95
2018-08-13T14:12:43.141Z,1.50
2018-08-13T14:15:13.245Z,1.92
2018-08-13T14:17:42.250Z,1.92
2018-08-13T14:20:11.266Z,1.57
2018-08-13T14:22:40.133Z,1.70
2018-08-13T14:25:09.452Z,1.40
2018-08-13T14:27:37.930Z,1.10
2018-08-13T14:30:25.909Z,1.57
2018-08-13T14:32:54.408Z,1.85
2018-08-13T14:35:23.897Z,1.70
2018-08-13T14:37:52.410Z,1.22
2018-08-13T14:40:20.954Z,0.90
2018-08-13T14:42:49.386Z,1.20
2018-08-13T14:45:18.170Z,1.47
2018-08-13T14:47:48.251Z,0.72
2018-08-13T14:50:16.768Z,0.78
2018-08-13T14:52:46.445Z,1.00
2018-08-13T14:55:19.473Z,1.35
2018-08-13T14:57:48.000Z,1.07
2018-08-13T15:00:22.042Z,1.75
2018-08-13T15:02:51.280Z,2.20
2018-08-13T15:05:19.740Z,1.52
2018-08-13T15:07:48.198Z,1.87
2018-08-13T15:10:18.254Z,1.90
2018-08-13T15:12:46.779Z,2.20
2018-08-13T15:15:15.246Z,2.27
2018-08-13T15:17:43.477Z,2.20
2018-08-13T15:20:17.925Z,1.82
2018-08-13T15:22:46.379Z,1.90
2018-08-13T15:25:14.905Z,2.58
2018-08-13T15:27:43.632Z,2.80
2018-08-13T15:30:14.274Z,2.50
2018-08-13T15:32:43.689Z,2.10
2018-08-13T15:35:12.168Z,2.47
2018-08-13T15:37:40.753Z,2.62
2018-08-13T15:40:09.922Z,2.15
2018-08-13T15:42:38.658Z,3.17
2018-08-13T15:45:12.921Z,3.15
2018-08-13T15:47:41.474Z,2.83
2018-08-13T15:50:10.284Z,3.00
2018-08-13T15:52:38.804Z,2.95
2018-08-13T15:55:07.295Z,3.20
2018-08-13T15:57:35.748Z,3.15
2018-08-13T16:00:05.245Z,3.00
2018-08-13T16:02:33.710Z,2.77
2018-08-13T16:05:02.187Z,2.77
2018-08-13T16:07:30.643Z,2.72
2018-08-13T16:09:59.074Z,3.05
2018-08-13T16:12:27.473Z,2.98
2018-08-13T16:14:55.893Z,2.83
2018-08-13T16:17:24.312Z,2.35
2018-08-13T16:19:52.776Z,2.47
2018-08-13T16:22:21.201Z,3.15
2018-08-13T16:24:49.709Z,2.95
2018-08-13T16:27:18.165Z,3.67
2018-08-13T16:29:46.637Z,3.25
2018-08-13T16:32:15.121Z,4.10
2018-08-13T16:34:43.597Z,3.33
2018-08-13T16:37:12.012Z,3.40
2018-08-13T16:39:40.489Z,2.83
2018-08-13T16:42:08.940Z,2.77
2018-08-13T16:44:37.404Z,2.98
2018-08-13T16:47:05.849Z,3.00
2018-08-13T16:49:34.493Z,2.62
2018-08-13T16:52:03.005Z,2.25
2018-08-13T16:54:31.482Z,1.80
2018-08-13T16:57:00.230Z,2.17
2018-08-13T16:59:28.978Z,2.00
2018-08-13T17:01:57.565Z,2.80
2018-08-13T17:04:26.500Z,2.25
2018-08-13T17:06:55.301Z,2.40
2018-08-13T17:09:24.492Z,2.50
2018-08-13T17:11:52.984Z,3.00
2018-08-13T17:14:21.673Z,2.60
2018-08-13T17:16:49.937Z,3.00
2018-08-13T17:19:18.423Z,2.83
2018-08-13T17:21:46.847Z,2.72
2018-08-13T17:24:15.655Z,2.90
2018-08-13T17:26:44.509Z,2.95
2018-08-13T17:29:13.006Z,2.50
2018-08-13T17:31:41.453Z,2.37
2018-08-13T17:34:10.773Z,2.15
2018-08-13T17:36:39.804Z,2.45
2018-08-13T17:39:11.689Z,2.17
2018-08-13T17:41:40.497Z,2.35
2018-08-13T17:44:09.105Z,1.95
2018-08-13T17:46:37.749Z,2.30
2018-08-13T17:49:06.514Z,2.37
2018-08-13T17:51:35.054Z,3.15
2018-08-13T17:54:03.553Z,3.37
2018-08-13T17:56:31.997Z,2.40
2018-08-13T17:59:00.456Z,2.37
2018-08-13T18:01:28.945Z,2.70
2018-08-13T18:03:57.581Z,4.35
2018-08-13T18:06:26.062Z,4.30
2018-08-13T18:08:54.586Z,4.35
2018-08-13T18:11:23.273Z,4.80
2018-08-13T18:13:51.771Z,3.70
2018-08-13T18:16:20.264Z,3.00
2018-08-13T18:18:48.705Z,2.10
2018-08-13T18:21:17.235Z,2.55
2018-08-13T18:23:46.235Z,2.50
2018-08-13T18:26:14.697Z,2.10
2018-08-13T18:28:43.173Z,2.12
2018-08-13T18:31:11.665Z,2.10
2018-08-13T18:33:40.102Z,2.15
2018-08-13T18:36:08.582Z,1.67
2018-08-13T18:38:37.024Z,2.02
2018-08-13T18:41:15.329Z,2.42
2018-08-13T18:43:43.878Z,2.22
2018-08-13T18:46:12.349Z,2.00
2018-08-13T18:48:40.820Z,2.22
2018-08-13T18:51:09.298Z,2.42
2018-08-13T18:53:37.842Z,2.47
2018-08-13T18:56:06.286Z,2.83
2018-08-13T18:58:34.689Z,2.33
2018-08-13T19:01:03.209Z,2.12
2018-08-13T19:03:32.010Z,2.33
2018-08-13T19:06:00.457Z,2.10
2018-08-13T19:08:28.925Z,2.47
2018-08-13T19:10:57.398Z,2.15
2018-08-13T19:13:25.681Z,2.22
2018-08-13T19:15:54.363Z,2.50
2018-08-13T19:18:22.499Z,1.92
2018-08-13T19:20:50.953Z,2.27
2018-08-13T19:23:19.395Z,2.08
2018-08-13T19:25:47.901Z,2.45
2018-08-13T19:28:16.312Z,1.85
2018-08-13T19:30:44.781Z,1.98
2018-08-13T19:33:13.232Z,1.90
2018-08-13T19:35:41.690Z,2.05
2018-08-13T19:38:10.152Z,2.02
2018-08-13T19:40:38.664Z,2.77
2018-08-13T19:43:07.268Z,2.10
2018-08-13T19:45:35.681Z,2.22
2018-08-13T19:48:04.182Z,2.12
2018-08-13T19:50:32.716Z,2.67
2018-08-13T19:53:01.166Z,1.92
2018-08-13T19:55:29.641Z,2.00
2018-08-13T19:57:58.169Z,2.40
2018-08-13T20:00:27.975Z,2.27
2018-08-13T20:02:56.614Z,2.25
2018-08-13T20:05:26.366Z,2.05
2018-08-13T20:07:55.464Z,2.52
2018-08-13T20:10:23.621Z,2.15
2018-08-13T20:12:52.321Z,2.33
2018-08-13T20:15:20.721Z,2.30
2018-08-13T20:17:49.188Z,2.52
2018-08-13T20:20:19.088Z,2.20
2018-08-13T20:22:48.196Z,2.50
2018-08-13T20:25:17.841Z,2.45
2018-08-13T20:27:46.911Z,2.52
2018-08-13T20:30:17.241Z,2.75
2018-08-13T20:32:47.372Z,2.55
2018-08-13T20:35:15.925Z,2.05
2018-08-13T20:37:44.782Z,2.67
2018-08-13T20:40:15.288Z,2.50
2018-08-13T20:42:44.394Z,2.42
2018-08-13T20:45:15.090Z,2.72
2018-08-13T20:47:44.236Z,2.37
2018-08-13T20:50:17.021Z,2.65
2018-08-13T20:52:46.426Z,2.92
2018-08-13T20:55:17.416Z,2.30
2018-08-13T20:57:46.912Z,3.00
2018-08-13T21:00:16.645Z,2.70
2018-08-13T21:02:46.356Z,2.62
2018-08-13T21:05:15.010Z,2.40
2018-08-13T21:07:44.532Z,2.50
2018-08-13T21:10:16.753Z,3.12
2018-08-13T21:12:45.282Z,2.47
2018-08-13T21:15:15.096Z,2.60
2018-08-13T21:17:43.850Z,2.40
2018-08-13T21:20:20.680Z,2.60
2018-08-13T21:22:49.224Z,2.22
2018-08-13T21:25:17.716Z,2.80
2018-08-13T21:27:46.390Z,2.95
2018-08-13T21:30:14.840Z,2.33
2018-08-13T21:32:43.879Z,3.08
2018-08-13T21:35:15.881Z,3.35
2018-08-13T21:37:45.725Z,3.67
2018-08-13T21:40:14.280Z,4.10
2018-08-13T21:42:43.022Z,4.35
2018-08-13T21:45:12.004Z,3.67
2018-08-13T21:47:40.773Z,3.25
2018-08-13T21:50:13.422Z,3.40
2018-08-13T21:52:41.911Z,2.72
2018-08-13T21:55:10.389Z,2.30
2018-08-13T21:57:39.108Z,2.90
2018-08-13T22:00:15.445Z,2.65
2018-08-13T22:02:44.017Z,2.40
2018-08-13T22:05:12.463Z,2.35
2018-08-13T22:07:40.929Z,2.70
2018-08-13T22:10:09.661Z,2.47
2018-08-13T22:12:38.133Z,1.62
2018-08-13T22:15:18.803Z,1.70
2018-08-13T22:17:47.270Z,1.90
2018-08-13T22:20:15.757Z,1.35
2018-08-13T22:22:44.366Z,1.75
2018-08-13T22:25:15.576Z,1.35
2018-08-13T22:27:44.140Z,1.50
2018-08-13T22:30:12.649Z,0.93
2018-08-13T22:32:41.142Z,1.47
2018-08-13T22:35:10.420Z,1.20
2018-08-13T22:37:40.367Z,1.22
2018-08-13T22:40:15.034Z,1.05
2018-08-13T22:42:44.644Z,1.17
2018-08-13T22:45:15.083Z,1.52
2018-08-13T22:47:43.614Z,1.20
2018-08-13T22:50:12.115Z,1.10
2018-08-13T22:52:40.607Z,1.00
2018-08-13T22:55:10.773Z,1.05
2018-08-13T22:57:39.220Z,1.00
2018-08-13T23:00:10.355Z,1.00
2018-08-13T23:02:38.977Z,0.80
2018-08-13T23:05:10.073Z,0.90
2018-08-13T23:07:39.652Z,0.95
2018-08-13T23:10:09.268Z,0.95
2018-08-13T23:12:38.005Z,0.47
2018-08-13T23:15:10.058Z,0.72
2018-08-13T23:17:38.693Z,0.80
2018-08-13T23:20:10.020Z,0.60
2018-08-13T23:23:03.555Z,0.80
2018-08-13T23:25:33.966Z,0.90
2018-08-13T23:28:03.620Z,0.40
2018-08-13T23:30:32.150Z,0.70
2018-08-13T23:33:01.288Z,0.70
2018-08-13T23:35:30.164Z,0.60
2018-08-13T23:37:58.646Z,0.50
2018-08-13T23:40:28.121Z,1.00
2018-08-13T23:42:56.635Z,0.62
2018-08-13T23:45:28.277Z,0.60
2018-08-13T23:47:56.871Z,0.50
2018-08-13T23:50:26.341Z,0.62
2018-08-13T23:52:57.301Z,0.70
2018-08-13T23:55:31.489Z,0.72
2018-08-13T23:58:01.140Z,0.60
